sensor_id;sensor_type;location;lat;lon;timestamp;temperature;humidity
10062;DHT22;5070;52.382;5.270;2023-07-28T00:00:30;23.40;84.40
10062;DHT22;5070;52.382;5.270;2023-07-28T00:02:58;23.40;84.50
10062;DHT22;5070;52.382;5.270;2023-07-28T00:05:26;23.40;84.30
10062;DHT22;5070;52.382;5.270;2023-07-28T00:07:54;23.40;84.20
10062;DHT22;5070;52.382;5.270;2023-07-28T00:10:23;23.40;84.40
10062;DHT22;5070;52.382;5.270;2023-07-28T00:12:51;23.40;84.30
10062;DHT22;5070;52.382;5.270;2023-07-28T00:15:21;23.40;84.70
10062;DHT22;5070;52.382;5.270;2023-07-28T00:17:49;23.40;85.20
10062;DHT22;5070;52.382;5.270;2023-07-28T00:20:17;23.40;84.40
10062;DHT22;5070;52.382;5.270;2023-07-28T00:22:45;23.40;84.40
10062;DHT22;5070;52.382;5.270;2023-07-28T00:25:13;23.40;84.30
10062;DHT22;5070;52.382;5.270;2023-07-28T00:27:41;23.40;84.40
10062;DHT22;5070;52.382;5.270;2023-07-28T00:30:11;23.40;84.20
10062;DHT22;5070;52.382;5.270;2023-07-28T00:32:41;23.30;84.20
10062;DHT22;5070;52.382;5.270;2023-07-28T00:35:09;23.40;84.50
10062;DHT22;5070;52.382;5.270;2023-07-28T00:37:38;23.30;84.20
10062;DHT22;5070;52.382;5.270;2023-07-28T00:40:07;23.30;84.40
10062;DHT22;5070;52.382;5.270;2023-07-28T00:42:35;23.30;84.20
10062;DHT22;5070;52.382;5.270;2023-07-28T00:45:04;23.30;84.20
10062;DHT22;5070;52.382;5.270;2023-07-28T00:47:32;23.30;84.10
10062;DHT22;5070;52.382;5.270;2023-07-28T00:50:02;23.30;84.10
10062;DHT22;5070;52.382;5.270;2023-07-28T00:52:31;23.30;84.10
10062;DHT22;5070;52.382;5.270;2023-07-28T00:54:59;23.30;84.10
10062;DHT22;5070;52.382;5.270;2023-07-28T00:57:28;23.30;84.00
10062;DHT22;5070;52.382;5.270;2023-07-28T00:59:58;23.30;84.20
10062;DHT22;5070;52.382;5.270;2023-07-28T01:02:27;23.30;84.20
10062;DHT22;5070;52.382;5.270;2023-07-28T01:04:55;23.30;84.00
10062;DHT22;5070;52.382;5.270;2023-07-28T01:07:29;23.30;84.10
10062;DHT22;5070;52.382;5.270;2023-07-28T01:10:02;23.30;83.90
10062;DHT22;5070;52.382;5.270;2023-07-28T01:12:32;23.30;83.70
10062;DHT22;5070;52.382;5.270;2023-07-28T01:15:01;23.30;83.60
10062;DHT22;5070;52.382;5.270;2023-07-28T01:17:29;23.30;83.50
10062;DHT22;5070;52.382;5.270;2023-07-28T01:19:57;23.30;83.70
10062;DHT22;5070;52.382;5.270;2023-07-28T01:22:53;23.30;83.80
10062;DHT22;5070;52.382;5.270;2023-07-28T01:25:32;23.30;83.60
10062;DHT22;5070;52.382;5.270;2023-07-28T01:28:03;23.30;83.70
10062;DHT22;5070;52.382;5.270;2023-07-28T01:30:32;23.30;83.90
10062;DHT22;5070;52.382;5.270;2023-07-28T01:33:00;23.30;83.90
10062;DHT22;5070;52.382;5.270;2023-07-28T01:35:28;23.30;83.70
10062;DHT22;5070;52.382;5.270;2023-07-28T01:37:56;23.30;84.10
10062;DHT22;5070;52.382;5.270;2023-07-28T01:40:24;23.30;83.90
10062;DHT22;5070;52.382;5.270;2023-07-28T01:42:53;23.30;84.60
10062;DHT22;5070;52.382;5.270;2023-07-28T01:45:22;23.30;83.80
10062;DHT22;5070;52.382;5.270;2023-07-28T01:47:50;23.30;83.80
10062;DHT22;5070;52.382;5.270;2023-07-28T01:50:18;23.30;83.80
10062;DHT22;5070;52.382;5.270;2023-07-28T01:52:46;23.30;83.90
10062;DHT22;5070;52.382;5.270;2023-07-28T01:55:15;23.30;83.90
10062;DHT22;5070;52.382;5.270;2023-07-28T01:57:53;23.30;83.90
10062;DHT22;5070;52.382;5.270;2023-07-28T02:00:23;23.30;83.90
10062;DHT22;5070;52.382;5.270;2023-07-28T02:02:52;23.30;83.90
10062;DHT22;5070;52.382;5.270;2023-07-28T02:05:22;23.30;84.60
10062;DHT22;5070;52.382;5.270;2023-07-28T02:07:50;23.30;83.80
10062;DHT22;5070;52.382;5.270;2023-07-28T02:10:18;23.30;83.90
10062;DHT22;5070;52.382;5.270;2023-07-28T02:12:46;23.30;83.90
10062;DHT22;5070;52.382;5.270;2023-07-28T02:15:14;23.30;84.00
10062;DHT22;5070;52.382;5.270;2023-07-28T02:17:44;23.30;84.10
10062;DHT22;5070;52.382;5.270;2023-07-28T02:20:12;23.30;84.00
10062;DHT22;5070;52.382;5.270;2023-07-28T02:22:42;23.30;84.00
10062;DHT22;5070;52.382;5.270;2023-07-28T02:25:11;23.30;83.90
10062;DHT22;5070;52.382;5.270;2023-07-28T02:27:39;23.30;83.80
10062;DHT22;5070;52.382;5.270;2023-07-28T02:30:07;23.30;83.90
10062;DHT22;5070;52.382;5.270;2023-07-28T02:32:36;23.30;84.00
10062;DHT22;5070;52.382;5.270;2023-07-28T02:35:07;23.30;84.80
10062;DHT22;5070;52.382;5.270;2023-07-28T02:37:35;23.30;83.90
10062;DHT22;5070;52.382;5.270;2023-07-28T02:40:04;23.30;84.00
10062;DHT22;5070;52.382;5.270;2023-07-28T02:42:32;23.30;83.60
10062;DHT22;5070;52.382;5.270;2023-07-28T02:45:02;23.30;83.70
10062;DHT22;5070;52.382;5.270;2023-07-28T02:47:30;23.30;83.80
10062;DHT22;5070;52.382;5.270;2023-07-28T02:49:58;23.30;83.70
10062;DHT22;5070;52.382;5.270;2023-07-28T02:52:28;23.30;83.90
10062;DHT22;5070;52.382;5.270;2023-07-28T02:54:56;23.30;83.80
10062;DHT22;5070;52.382;5.270;2023-07-28T02:57:24;23.30;83.80
10062;DHT22;5070;52.382;5.270;2023-07-28T02:59:52;23.30;83.90
10062;DHT22;5070;52.382;5.270;2023-07-28T03:02:26;23.30;83.90
10062;DHT22;5070;52.382;5.270;2023-07-28T03:04:57;23.30;83.90
10062;DHT22;5070;52.382;5.270;2023-07-28T03:07:25;23.30;84.00
10062;DHT22;5070;52.382;5.270;2023-07-28T03:10:00;23.30;84.60
10062;DHT22;5070;52.382;5.270;2023-07-28T03:12:29;23.20;83.90
10062;DHT22;5070;52.382;5.270;2023-07-28T03:14:57;23.20;83.90
10062;DHT22;5070;52.382;5.270;2023-07-28T03:17:25;23.20;83.90
10062;DHT22;5070;52.382;5.270;2023-07-28T03:19:54;23.20;83.90
10062;DHT22;5070;52.382;5.270;2023-07-28T03:22:22;23.20;83.90
10062;DHT22;5070;52.382;5.270;2023-07-28T03:24:50;23.20;83.90
10062;DHT22;5070;52.382;5.270;2023-07-28T03:27:20;23.20;83.70
10062;DHT22;5070;52.382;5.270;2023-07-28T03:29:48;23.20;83.80
10062;DHT22;5070;52.382;5.270;2023-07-28T03:32:18;23.20;84.00
10062;DHT22;5070;52.382;5.270;2023-07-28T03:34:47;23.20;83.80
10062;DHT22;5070;52.382;5.270;2023-07-28T03:37:18;23.20;83.70
10062;DHT22;5070;52.382;5.270;2023-07-28T03:39:46;23.20;83.90
10062;DHT22;5070;52.382;5.270;2023-07-28T03:42:15;23.20;84.00
10062;DHT22;5070;52.382;5.270;2023-07-28T03:44:44;23.20;83.90
10062;DHT22;5070;52.382;5.270;2023-07-28T03:47:12;23.20;83.80
10062;DHT22;5070;52.382;5.270;2023-07-28T03:49:40;23.20;83.90
10062;DHT22;5070;52.382;5.270;2023-07-28T03:52:08;23.20;83.80
10062;DHT22;5070;52.382;5.270;2023-07-28T03:54:36;23.20;83.70
10062;DHT22;5070;52.382;5.270;2023-07-28T03:57:05;23.20;83.90
10062;DHT22;5070;52.382;5.270;2023-07-28T03:59:33;23.20;83.70
10062;DHT22;5070;52.382;5.270;2023-07-28T04:02:03;23.20;83.70
10062;DHT22;5070;52.382;5.270;2023-07-28T04:04:31;23.20;83.90
10062;DHT22;5070;52.382;5.270;2023-07-28T04:06:59;23.20;83.80
10062;DHT22;5070;52.382;5.270;2023-07-28T04:09:29;23.20;83.90
10062;DHT22;5070;52.382;5.270;2023-07-28T04:11:58;23.20;83.90
10062;DHT22;5070;52.382;5.270;2023-07-28T04:14:30;23.20;83.90
10062;DHT22;5070;52.382;5.270;2023-07-28T04:17:05;23.20;83.70
10062;DHT22;5070;52.382;5.270;2023-07-28T04:19:33;23.20;83.90
10062;DHT22;5070;52.382;5.270;2023-07-28T04:22:01;23.20;83.80
10062;DHT22;5070;52.382;5.270;2023-07-28T04:24:31;23.20;83.70
10062;DHT22;5070;52.382;5.270;2023-07-28T04:26:59;23.20;83.70
10062;DHT22;5070;52.382;5.270;2023-07-28T04:29:28;23.20;83.80
10062;DHT22;5070;52.382;5.270;2023-07-28T04:31:57;23.20;83.80
10062;DHT22;5070;52.382;5.270;2023-07-28T04:34:34;23.20;83.80
10062;DHT22;5070;52.382;5.270;2023-07-28T04:37:10;23.20;83.90
10062;DHT22;5070;52.382;5.270;2023-07-28T04:39:52;23.20;83.70
10062;DHT22;5070;52.382;5.270;2023-07-28T04:42:20;23.20;83.70
10062;DHT22;5070;52.382;5.270;2023-07-28T04:44:48;23.20;83.80
10062;DHT22;5070;52.382;5.270;2023-07-28T04:47:18;23.20;83.80
10062;DHT22;5070;52.382;5.270;2023-07-28T04:49:47;23.20;83.70
10062;DHT22;5070;52.382;5.270;2023-07-28T04:52:44;23.20;83.70
10062;DHT22;5070;52.382;5.270;2023-07-28T04:55:38;23.20;83.70
10062;DHT22;5070;52.382;5.270;2023-07-28T04:58:06;23.20;83.60
10062;DHT22;5070;52.382;5.270;2023-07-28T05:00:44;23.20;83.60
10062;DHT22;5070;52.382;5.270;2023-07-28T05:03:12;23.20;83.70
10062;DHT22;5070;52.382;5.270;2023-07-28T05:05:50;23.20;83.80
10062;DHT22;5070;52.382;5.270;2023-07-28T05:08:18;23.20;83.60
10062;DHT22;5070;52.382;5.270;2023-07-28T05:10:46;23.20;83.70
10062;DHT22;5070;52.382;5.270;2023-07-28T05:13:14;23.20;83.70
10062;DHT22;5070;52.382;5.270;2023-07-28T05:15:50;23.20;83.70
10062;DHT22;5070;52.382;5.270;2023-07-28T05:18:38;23.20;83.60
10062;DHT22;5070;52.382;5.270;2023-07-28T05:21:46;23.20;83.70
10062;DHT22;5070;52.382;5.270;2023-07-28T05:24:15;23.20;83.50
10062;DHT22;5070;52.382;5.270;2023-07-28T05:26:44;23.20;83.60
10062;DHT22;5070;52.382;5.270;2023-07-28T05:29:13;23.20;83.30
10062;DHT22;5070;52.382;5.270;2023-07-28T05:31:42;23.20;83.60
10062;DHT22;5070;52.382;5.270;2023-07-28T05:34:20;23.20;83.70
10062;DHT22;5070;52.382;5.270;2023-07-28T05:36:49;23.20;84.00
10062;DHT22;5070;52.382;5.270;2023-07-28T05:39:18;23.20;84.10
10062;DHT22;5070;52.382;5.270;2023-07-28T05:41:46;23.20;84.70
10062;DHT22;5070;52.382;5.270;2023-07-28T05:44:14;23.20;84.00
10062;DHT22;5070;52.382;5.270;2023-07-28T05:46:42;23.20;83.90
10062;DHT22;5070;52.382;5.270;2023-07-28T05:49:11;23.20;84.00
10062;DHT22;5070;52.382;5.270;2023-07-28T05:51:40;23.20;83.70
10062;DHT22;5070;52.382;5.270;2023-07-28T05:54:13;23.20;83.60
10062;DHT22;5070;52.382;5.270;2023-07-28T05:56:42;23.20;83.70
10062;DHT22;5070;52.382;5.270;2023-07-28T05:59:10;23.20;83.70
10062;DHT22;5070;52.382;5.270;2023-07-28T06:01:39;23.20;83.90
10062;DHT22;5070;52.382;5.270;2023-07-28T06:04:13;23.20;83.70
10062;DHT22;5070;52.382;5.270;2023-07-28T06:06:46;23.20;83.70
10062;DHT22;5070;52.382;5.270;2023-07-28T06:09:17;23.20;83.90
10062;DHT22;5070;52.382;5.270;2023-07-28T06:11:45;23.20;84.10
10062;DHT22;5070;52.382;5.270;2023-07-28T06:14:13;23.20;83.90
10062;DHT22;5070;52.382;5.270;2023-07-28T06:16:42;23.20;84.00
10062;DHT22;5070;52.382;5.270;2023-07-28T06:19:10;23.30;85.20
10062;DHT22;5070;52.382;5.270;2023-07-28T06:21:39;23.30;84.40
10062;DHT22;5070;52.382;5.270;2023-07-28T06:24:07;23.20;84.10
10062;DHT22;5070;52.382;5.270;2023-07-28T06:26:37;23.20;84.10
10062;DHT22;5070;52.382;5.270;2023-07-28T06:29:04;23.30;84.10
10062;DHT22;5070;52.382;5.270;2023-07-28T06:31:33;23.30;84.10
10062;DHT22;5070;52.382;5.270;2023-07-28T06:34:01;23.30;84.10
10062;DHT22;5070;52.382;5.270;2023-07-28T06:36:30;23.30;84.10
10062;DHT22;5070;52.382;5.270;2023-07-28T06:38:58;23.20;84.00
10062;DHT22;5070;52.382;5.270;2023-07-28T06:41:26;23.30;84.20
10062;DHT22;5070;52.382;5.270;2023-07-28T06:44:01;23.30;84.00
10062;DHT22;5070;52.382;5.270;2023-07-28T06:46:29;23.20;83.90
10062;DHT22;5070;52.382;5.270;2023-07-28T06:48:57;23.30;84.10
10062;DHT22;5070;52.382;5.270;2023-07-28T06:51:26;23.30;84.10
10062;DHT22;5070;52.382;5.270;2023-07-28T06:53:54;23.30;84.10
10062;DHT22;5070;52.382;5.270;2023-07-28T06:56:23;23.30;84.10
10062;DHT22;5070;52.382;5.270;2023-07-28T06:58:51;23.30;84.10
10062;DHT22;5070;52.382;5.270;2023-07-28T07:01:39;23.30;84.40
10062;DHT22;5070;52.382;5.270;2023-07-28T07:04:07;23.30;84.20
10062;DHT22;5070;52.382;5.270;2023-07-28T07:06:36;23.30;84.40
10062;DHT22;5070;52.382;5.270;2023-07-28T07:09:04;23.30;84.30
10062;DHT22;5070;52.382;5.270;2023-07-28T07:11:33;23.30;84.50
10062;DHT22;5070;52.382;5.270;2023-07-28T07:14:01;23.30;84.40
10062;DHT22;5070;52.382;5.270;2023-07-28T07:16:30;23.30;84.30
10062;DHT22;5070;52.382;5.270;2023-07-28T07:18:59;23.30;84.20
10062;DHT22;5070;52.382;5.270;2023-07-28T07:21:27;23.30;84.20
10062;DHT22;5070;52.382;5.270;2023-07-28T07:23:56;23.30;84.20
10062;DHT22;5070;52.382;5.270;2023-07-28T07:26:24;23.20;84.10
10062;DHT22;5070;52.382;5.270;2023-07-28T07:28:52;23.30;84.50
10062;DHT22;5070;52.382;5.270;2023-07-28T07:31:21;23.20;84.30
10062;DHT22;5070;52.382;5.270;2023-07-28T07:33:49;23.30;84.40
10062;DHT22;5070;52.382;5.270;2023-07-28T07:36:20;23.30;84.20
10062;DHT22;5070;52.382;5.270;2023-07-28T07:38:48;23.20;85.00
10062;DHT22;5070;52.382;5.270;2023-07-28T07:41:16;23.30;84.30
10062;DHT22;5070;52.382;5.270;2023-07-28T07:43:47;23.20;84.10
10062;DHT22;5070;52.382;5.270;2023-07-28T07:46:16;23.30;84.20
10062;DHT22;5070;52.382;5.270;2023-07-28T07:48:46;23.30;84.20
10062;DHT22;5070;52.382;5.270;2023-07-28T07:51:15;23.30;84.30
10062;DHT22;5070;52.382;5.270;2023-07-28T07:53:44;23.30;84.40
10062;DHT22;5070;52.382;5.270;2023-07-28T07:56:13;23.30;84.30
10062;DHT22;5070;52.382;5.270;2023-07-28T07:58:41;23.30;84.20
10062;DHT22;5070;52.382;5.270;2023-07-28T08:01:10;23.30;84.20
10062;DHT22;5070;52.382;5.270;2023-07-28T08:03:39;23.30;84.20
10062;DHT22;5070;52.382;5.270;2023-07-28T08:06:07;23.30;85.00
10062;DHT22;5070;52.382;5.270;2023-07-28T08:08:38;23.30;84.20
10062;DHT22;5070;52.382;5.270;2023-07-28T08:11:11;23.30;84.20
10062;DHT22;5070;52.382;5.270;2023-07-28T08:13:39;23.30;84.30
10062;DHT22;5070;52.382;5.270;2023-07-28T08:16:07;23.30;84.20
10062;DHT22;5070;52.382;5.270;2023-07-28T08:18:35;23.30;84.50
10062;DHT22;5070;52.382;5.270;2023-07-28T08:21:03;23.30;84.60
10062;DHT22;5070;52.382;5.270;2023-07-28T08:23:31;23.30;84.70
10062;DHT22;5070;52.382;5.270;2023-07-28T08:26:00;23.30;84.60
10062;DHT22;5070;52.382;5.270;2023-07-28T08:28:29;23.30;84.60
10062;DHT22;5070;52.382;5.270;2023-07-28T08:30:59;23.30;84.60
10062;DHT22;5070;52.382;5.270;2023-07-28T08:33:28;23.30;85.10
10062;DHT22;5070;52.382;5.270;2023-07-28T08:35:56;23.30;84.80
10062;DHT22;5070;52.382;5.270;2023-07-28T08:38:24;23.30;84.70
10062;DHT22;5070;52.382;5.270;2023-07-28T08:40:52;23.30;84.60
10062;DHT22;5070;52.382;5.270;2023-07-28T08:43:20;23.30;84.50
10062;DHT22;5070;52.382;5.270;2023-07-28T08:45:49;23.30;84.60
10062;DHT22;5070;52.382;5.270;2023-07-28T08:48:18;23.30;84.50
10062;DHT22;5070;52.382;5.270;2023-07-28T08:50:46;23.30;84.60
10062;DHT22;5070;52.382;5.270;2023-07-28T08:53:14;23.30;84.50
10062;DHT22;5070;52.382;5.270;2023-07-28T08:55:42;23.30;84.50
10062;DHT22;5070;52.382;5.270;2023-07-28T08:58:14;23.30;84.50
10062;DHT22;5070;52.382;5.270;2023-07-28T09:00:42;23.30;84.70
10062;DHT22;5070;52.382;5.270;2023-07-28T09:03:13;23.30;84.60
10062;DHT22;5070;52.382;5.270;2023-07-28T09:05:42;23.30;84.60
10062;DHT22;5070;52.382;5.270;2023-07-28T09:08:10;23.30;85.10
10062;DHT22;5070;52.382;5.270;2023-07-28T09:10:42;23.30;84.90
10062;DHT22;5070;52.382;5.270;2023-07-28T09:13:10;23.30;84.00
10062;DHT22;5070;52.382;5.270;2023-07-28T09:15:43;23.30;84.40
10062;DHT22;5070;52.382;5.270;2023-07-28T09:18:16;23.40;84.90
10062;DHT22;5070;52.382;5.270;2023-07-28T09:20:44;23.40;84.50
10062;DHT22;5070;52.382;5.270;2023-07-28T09:23:14;23.40;84.50
10062;DHT22;5070;52.382;5.270;2023-07-28T09:25:43;23.40;85.00
10062;DHT22;5070;52.382;5.270;2023-07-28T09:28:11;23.40;85.40
10062;DHT22;5070;52.382;5.270;2023-07-28T09:30:45;23.40;86.00
10062;DHT22;5070;52.382;5.270;2023-07-28T09:33:28;23.50;86.30
10062;DHT22;5070;52.382;5.270;2023-07-28T09:35:57;23.50;86.00
10062;DHT22;5070;52.382;5.270;2023-07-28T09:38:27;23.50;86.30
10062;DHT22;5070;52.382;5.270;2023-07-28T09:40:57;23.50;86.30
10062;DHT22;5070;52.382;5.270;2023-07-28T09:43:26;23.50;86.60
10062;DHT22;5070;52.382;5.270;2023-07-28T09:45:55;23.50;86.50
10062;DHT22;5070;52.382;5.270;2023-07-28T09:48:25;23.50;86.40
10062;DHT22;5070;52.382;5.270;2023-07-28T09:50:58;23.60;86.10
10062;DHT22;5070;52.382;5.270;2023-07-28T09:53:27;23.60;85.60
10062;DHT22;5070;52.382;5.270;2023-07-28T09:55:58;23.60;86.00
10062;DHT22;5070;52.382;5.270;2023-07-28T09:58:27;23.60;86.30
10062;DHT22;5070;52.382;5.270;2023-07-28T10:00:57;23.60;86.30
10062;DHT22;5070;52.382;5.270;2023-07-28T10:03:28;23.60;86.60
10062;DHT22;5070;52.382;5.270;2023-07-28T10:05:57;23.60;86.70
10062;DHT22;5070;52.382;5.270;2023-07-28T10:08:25;23.60;86.80
10062;DHT22;5070;52.382;5.270;2023-07-28T10:10:54;23.60;87.10
10062;DHT22;5070;52.382;5.270;2023-07-28T10:13:25;23.60;86.80
10062;DHT22;5070;52.382;5.270;2023-07-28T10:15:54;23.60;86.70
10062;DHT22;5070;52.382;5.270;2023-07-28T10:18:22;23.60;86.90
10062;DHT22;5070;52.382;5.270;2023-07-28T10:21:04;23.60;87.10
10062;DHT22;5070;52.382;5.270;2023-07-28T10:23:34;23.60;86.90
10062;DHT22;5070;52.382;5.270;2023-07-28T10:26:04;23.60;86.90
10062;DHT22;5070;52.382;5.270;2023-07-28T10:28:35;23.60;87.00
10062;DHT22;5070;52.382;5.270;2023-07-28T10:31:05;23.60;87.20
10062;DHT22;5070;52.382;5.270;2023-07-28T10:33:35;23.70;87.50
10062;DHT22;5070;52.382;5.270;2023-07-28T10:36:15;23.70;87.20
10062;DHT22;5070;52.382;5.270;2023-07-28T10:38:44;23.70;87.50
10062;DHT22;5070;52.382;5.270;2023-07-28T10:41:14;23.60;87.40
10062;DHT22;5070;52.382;5.270;2023-07-28T10:43:44;23.70;87.50
10062;DHT22;5070;52.382;5.270;2023-07-28T10:46:15;23.70;87.40
10062;DHT22;5070;52.382;5.270;2023-07-28T10:48:45;23.70;87.30
10062;DHT22;5070;52.382;5.270;2023-07-28T10:51:21;23.70;87.40
10062;DHT22;5070;52.382;5.270;2023-07-28T10:53:54;23.70;87.40
10062;DHT22;5070;52.382;5.270;2023-07-28T10:56:24;23.70;86.30
10062;DHT22;5070;52.382;5.270;2023-07-28T10:58:56;23.70;86.70
10062;DHT22;5070;52.382;5.270;2023-07-28T11:01:31;23.70;87.10
10062;DHT22;5070;52.382;5.270;2023-07-28T11:04:07;23.70;87.20
10062;DHT22;5070;52.382;5.270;2023-07-28T11:06:37;23.70;86.30
10062;DHT22;5070;52.382;5.270;2023-07-28T11:09:06;23.70;86.10
10062;DHT22;5070;52.382;5.270;2023-07-28T11:11:35;23.70;86.90
10062;DHT22;5070;52.382;5.270;2023-07-28T11:14:05;23.80;86.70
10062;DHT22;5070;52.382;5.270;2023-07-28T11:16:35;23.80;87.30
10062;DHT22;5070;52.382;5.270;2023-07-28T11:19:08;23.80;87.20
10062;DHT22;5070;52.382;5.270;2023-07-28T11:21:39;23.70;85.80
10062;DHT22;5070;52.382;5.270;2023-07-28T11:24:08;23.80;85.40
10062;DHT22;5070;52.382;5.270;2023-07-28T11:26:38;23.80;86.80
10062;DHT22;5070;52.382;5.270;2023-07-28T11:29:06;23.80;86.80
10062;DHT22;5070;52.382;5.270;2023-07-28T11:31:35;23.80;86.00
10062;DHT22;5070;52.382;5.270;2023-07-28T11:34:04;23.80;82.30
10062;DHT22;5070;52.382;5.270;2023-07-28T11:36:41;23.80;84.00
10062;DHT22;5070;52.382;5.270;2023-07-28T11:39:10;23.80;85.90
10062;DHT22;5070;52.382;5.270;2023-07-28T11:41:39;23.80;85.90
10062;DHT22;5070;52.382;5.270;2023-07-28T11:44:07;23.90;86.30
10062;DHT22;5070;52.382;5.270;2023-07-28T11:46:38;23.80;86.20
10062;DHT22;5070;52.382;5.270;2023-07-28T11:49:08;23.80;86.70
10062;DHT22;5070;52.382;5.270;2023-07-28T11:51:41;23.90;86.60
10062;DHT22;5070;52.382;5.270;2023-07-28T11:54:14;23.90;85.90
10062;DHT22;5070;52.382;5.270;2023-07-28T11:56:47;23.90;85.70
10062;DHT22;5070;52.382;5.270;2023-07-28T11:59:17;23.90;85.60
10062;DHT22;5070;52.382;5.270;2023-07-28T12:01:55;23.90;84.40
10062;DHT22;5070;52.382;5.270;2023-07-28T12:04:27;23.90;84.60
10062;DHT22;5070;52.382;5.270;2023-07-28T12:07:06;23.90;85.20
10062;DHT22;5070;52.382;5.270;2023-07-28T12:09:49;24.00;83.90
10062;DHT22;5070;52.382;5.270;2023-07-28T12:12:30;24.00;85.10
10062;DHT22;5070;52.382;5.270;2023-07-28T12:15:21;24.00;83.90
10062;DHT22;5070;52.382;5.270;2023-07-28T12:18:06;24.00;86.20
10062;DHT22;5070;52.382;5.270;2023-07-28T12:20:39;23.90;85.30
10062;DHT22;5070;52.382;5.270;2023-07-28T12:23:09;23.90;84.90
10062;DHT22;5070;52.382;5.270;2023-07-28T12:25:40;24.00;84.10
10062;DHT22;5070;52.382;5.270;2023-07-28T12:28:08;23.90;85.10
10062;DHT22;5070;52.382;5.270;2023-07-28T12:30:42;24.00;84.60
10062;DHT22;5070;52.382;5.270;2023-07-28T12:33:11;23.90;84.60
10062;DHT22;5070;52.382;5.270;2023-07-28T12:35:45;24.00;85.50
10062;DHT22;5070;52.382;5.270;2023-07-28T12:38:17;24.00;84.50
10062;DHT22;5070;52.382;5.270;2023-07-28T12:40:48;24.00;85.80
10062;DHT22;5070;52.382;5.270;2023-07-28T12:43:19;24.00;85.60
10062;DHT22;5070;52.382;5.270;2023-07-28T12:45:50;24.00;85.40
10062;DHT22;5070;52.382;5.270;2023-07-28T12:48:22;24.00;85.20
10062;DHT22;5070;52.382;5.270;2023-07-28T12:50:50;24.10;84.80
10062;DHT22;5070;52.382;5.270;2023-07-28T12:53:31;24.00;84.20
10062;DHT22;5070;52.382;5.270;2023-07-28T12:55:59;24.10;84.50
10062;DHT22;5070;52.382;5.270;2023-07-28T12:58:28;24.10;84.90
10062;DHT22;5070;52.382;5.270;2023-07-28T13:01:01;24.10;84.90
10062;DHT22;5070;52.382;5.270;2023-07-28T13:03:31;24.10;84.10
10062;DHT22;5070;52.382;5.270;2023-07-28T13:06:00;24.10;84.20
10062;DHT22;5070;52.382;5.270;2023-07-28T13:08:28;24.10;83.40
10062;DHT22;5070;52.382;5.270;2023-07-28T13:11:01;24.10;84.20
10062;DHT22;5070;52.382;5.270;2023-07-28T13:13:32;24.10;84.30
10062;DHT22;5070;52.382;5.270;2023-07-28T13:16:02;24.10;84.00
10062;DHT22;5070;52.382;5.270;2023-07-28T13:18:38;24.10;84.70
10062;DHT22;5070;52.382;5.270;2023-07-28T13:21:08;24.10;84.00
10062;DHT22;5070;52.382;5.270;2023-07-28T13:23:38;24.10;83.80
10062;DHT22;5070;52.382;5.270;2023-07-28T13:26:07;24.10;84.50
10062;DHT22;5070;52.382;5.270;2023-07-28T13:28:35;24.10;84.40
10062;DHT22;5070;52.382;5.270;2023-07-28T13:31:04;24.20;83.90
10062;DHT22;5070;52.382;5.270;2023-07-28T13:33:32;24.20;84.70
10062;DHT22;5070;52.382;5.270;2023-07-28T13:36:00;24.20;84.20
10062;DHT22;5070;52.382;5.270;2023-07-28T13:38:30;24.10;83.80
10062;DHT22;5070;52.382;5.270;2023-07-28T13:40:58;24.20;84.60
10062;DHT22;5070;52.382;5.270;2023-07-28T13:43:28;24.10;84.10
10062;DHT22;5070;52.382;5.270;2023-07-28T13:45:56;24.20;84.00
10062;DHT22;5070;52.382;5.270;2023-07-28T13:48:24;24.20;84.60
10062;DHT22;5070;52.382;5.270;2023-07-28T13:50:53;24.20;84.10
10062;DHT22;5070;52.382;5.270;2023-07-28T13:53:23;24.20;84.50
10062;DHT22;5070;52.382;5.270;2023-07-28T13:55:55;24.20;83.60
10062;DHT22;5070;52.382;5.270;2023-07-28T13:58:24;24.20;84.90
10062;DHT22;5070;52.382;5.270;2023-07-28T14:00:54;24.20;85.10
10062;DHT22;5070;52.382;5.270;2023-07-28T14:03:22;24.20;83.70
10062;DHT22;5070;52.382;5.270;2023-07-28T14:05:50;24.20;85.10
10062;DHT22;5070;52.382;5.270;2023-07-28T14:08:18;24.20;85.00
10062;DHT22;5070;52.382;5.270;2023-07-28T14:10:48;24.20;83.60
10062;DHT22;5070;52.382;5.270;2023-07-28T14:13:16;24.20;83.90
10062;DHT22;5070;52.382;5.270;2023-07-28T14:15:44;24.20;82.00
10062;DHT22;5070;52.382;5.270;2023-07-28T14:18:14;24.20;82.90
10062;DHT22;5070;52.382;5.270;2023-07-28T14:20:42;24.20;83.40
10062;DHT22;5070;52.382;5.270;2023-07-28T14:23:23;24.20;83.20
10062;DHT22;5070;52.382;5.270;2023-07-28T14:25:52;24.20;83.20
10062;DHT22;5070;52.382;5.270;2023-07-28T14:28:21;24.30;83.40
10062;DHT22;5070;52.382;5.270;2023-07-28T14:30:50;24.20;83.20
10062;DHT22;5070;52.382;5.270;2023-07-28T14:33:20;24.30;83.10
10062;DHT22;5070;52.382;5.270;2023-07-28T14:35:49;24.30;83.60
10062;DHT22;5070;52.382;5.270;2023-07-28T14:38:17;24.30;83.20
10062;DHT22;5070;52.382;5.270;2023-07-28T14:40:46;24.30;83.20
10062;DHT22;5070;52.382;5.270;2023-07-28T14:43:16;24.30;83.40
10062;DHT22;5070;52.382;5.270;2023-07-28T14:45:44;24.30;83.20
10062;DHT22;5070;52.382;5.270;2023-07-28T14:48:12;24.30;83.90
10062;DHT22;5070;52.382;5.270;2023-07-28T14:50:42;24.30;84.10
10062;DHT22;5070;52.382;5.270;2023-07-28T14:53:30;24.30;83.60
10062;DHT22;5070;52.382;5.270;2023-07-28T14:55:58;24.30;83.60
10062;DHT22;5070;52.382;5.270;2023-07-28T14:58:27;24.30;84.30
10062;DHT22;5070;52.382;5.270;2023-07-28T15:00:55;24.30;83.30
10062;DHT22;5070;52.382;5.270;2023-07-28T15:03:27;24.30;83.20
10062;DHT22;5070;52.382;5.270;2023-07-28T15:05:57;24.30;83.20
10062;DHT22;5070;52.382;5.270;2023-07-28T15:08:25;24.40;83.30
10062;DHT22;5070;52.382;5.270;2023-07-28T15:10:53;24.40;83.20
10062;DHT22;5070;52.382;5.270;2023-07-28T15:13:21;24.40;83.40
10062;DHT22;5070;52.382;5.270;2023-07-28T15:15:49;24.40;83.00
10062;DHT22;5070;52.382;5.270;2023-07-28T15:18:17;24.40;83.20
10062;DHT22;5070;52.382;5.270;2023-07-28T15:20:46;24.30;83.20
10062;DHT22;5070;52.382;5.270;2023-07-28T15:23:15;24.40;83.20
10062;DHT22;5070;52.382;5.270;2023-07-28T15:25:43;24.40;83.40
10062;DHT22;5070;52.382;5.270;2023-07-28T15:28:13;24.40;83.60
10062;DHT22;5070;52.382;5.270;2023-07-28T15:30:42;24.40;83.60
10062;DHT22;5070;52.382;5.270;2023-07-28T15:33:13;24.40;83.20
10062;DHT22;5070;52.382;5.270;2023-07-28T15:35:41;24.40;83.40
10062;DHT22;5070;52.382;5.270;2023-07-28T15:38:09;24.40;83.30
10062;DHT22;5070;52.382;5.270;2023-07-28T15:40:39;24.40;83.90
10062;DHT22;5070;52.382;5.270;2023-07-28T15:43:07;24.40;83.30
10062;DHT22;5070;52.382;5.270;2023-07-28T15:45:35;24.40;83.20
10062;DHT22;5070;52.382;5.270;2023-07-28T15:48:03;24.40;83.10
10062;DHT22;5070;52.382;5.270;2023-07-28T15:50:31;24.50;83.00
10062;DHT22;5070;52.382;5.270;2023-07-28T15:53:00;24.50;83.10
10062;DHT22;5070;52.382;5.270;2023-07-28T15:55:28;24.40;83.30
10062;DHT22;5070;52.382;5.270;2023-07-28T15:58:00;24.50;83.20
10062;DHT22;5070;52.382;5.270;2023-07-28T16:00:29;24.50;83.20
10062;DHT22;5070;52.382;5.270;2023-07-28T16:02:57;24.40;83.00